Аэропорт: Ханты-Мансийск. Ханты-Мансийск

ICAO: USHH

METAR:
2021-01-19 12:00:00
USHH 191200Z 27003MPS CAVOK M28/M31 Q1021 R24/390042 NOSIG
METAR:
2021-01-19 10:44:00
TAF USHH 191044Z 1912/2012 27003G08MPS 9999 SCT020 TEMPO 1912/2003 5000 FU FEW003 BKN016CB BECMG 1915/1917 21003G08MPS BECMG 2003/2005 17003G08MPS